Time;durP1;ratioP1;P1;durP2;ratioP2;P2;SDS_P1;SDS_P2;PMS_P1;PMS_P2;Temp;Humidity;BMP_temperature;BMP_pressure;BME280_temperature;BME280_humidity;BME280_pressure;Samples;Min_cycle;Max_cycle;Signal;HPM_P1;HPM_P2
2021/04/22 00:00:24;;;;;;;2.78;1.85;;;24.70;37.40;;;;;;5081312;28;20040;-56
2021/04/22 00:02:50;;;;;;;2.40;1.60;;;24.60;37.40;;;;;;5067648;28;20117;-55
2021/04/22 00:05:24;;;;;;;2.05;1.60;;;24.60;37.40;;;;;;5074365;28;20040;-57
2021/04/22 00:07:50;;;;;;;2.33;1.50;;;24.60;37.30;;;;;;5083079;28;20064;-58
2021/04/22 00:10:20;;;;;;;2.67;1.60;;;24.60;37.30;;;;;;5084343;28;20042;-59
2021/04/22 00:12:46;;;;;;;2.20;1.40;;;24.60;37.30;;;;;;5080959;28;20061;-58
2021/04/22 00:15:17;;;;;;;2.38;1.45;;;24.60;37.40;;;;;;5075337;28;20024;-59
2021/04/22 00:17:47;;;;;;;2.70;1.60;;;24.60;37.30;;;;;;5069857;28;20020;-55
2021/04/22 00:20:15;;;;;;;2.50;1.60;;;24.60;37.40;;;;;;5082496;28;20035;-59
2021/04/22 00:22:41;;;;;;;2.28;1.52;;;24.60;37.40;;;;;;5081755;28;20039;-59
2021/04/22 00:25:07;;;;;;;2.40;1.50;;;24.60;37.40;;;;;;5083165;28;20036;-59
2021/04/22 00:27:34;;;;;;;2.40;1.60;;;24.60;37.40;;;;;;5068358;28;20035;-60
2021/04/22 00:30:00;;;;;;;2.83;1.70;;;24.60;37.40;;;;;;5083750;28;20036;-56
2021/04/22 00:32:26;;;;;;;2.17;1.48;;;24.60;37.40;;;;;;5083750;28;20040;-55
2021/04/22 00:34:51;;;;;;;2.47;1.55;;;24.50;37.40;;;;;;5084035;28;20134;-56
2021/04/22 00:37:17;;;;;;;3.40;1.60;;;24.50;38.00;;;;;;5084716;28;20050;-59
2021/04/22 00:39:43;;;;;;;3.42;1.48;;;24.50;37.40;;;;;;5082066;28;20049;-54
2021/04/22 00:42:08;;;;;;;3.47;1.50;;;24.50;37.40;;;;;;5084500;28;20397;-54
2021/04/22 00:44:34;;;;;;;2.22;1.48;;;24.50;37.40;;;;;;5081914;28;20060;-60
2021/04/22 00:47:00;;;;;;;2.17;1.35;;;24.50;37.40;;;;;;5081708;28;20467;-58
2021/04/22 00:49:26;;;;;;;3.28;1.60;;;24.50;37.40;;;;;;5077943;28;20035;-55
2021/04/22 00:51:53;;;;;;;2.25;1.45;;;24.50;37.40;;;;;;5069802;28;20838;-53
2021/04/22 00:54:20;;;;;;;2.63;1.58;;;24.50;37.40;;;;;;5082051;28;20032;-55
2021/04/22 00:56:46;;;;;;;2.60;1.55;;;24.50;37.40;;;;;;5083271;28;20028;-57
2021/04/22 00:59:12;;;;;;;2.67;1.70;;;24.40;37.40;;;;;;5081453;28;20143;-59
2021/04/22 01:01:37;;;;;;;3.17;1.50;;;24.40;37.40;;;;;;5078278;28;20115;-56
2021/04/22 01:04:04;;;;;;;2.50;1.70;;;24.40;37.40;;;;;;5081755;28;20028;-55
2021/04/22 01:06:31;;;;;;;2.85;1.48;;;24.40;37.40;;;;;;5082753;28;20467;-54
2021/04/22 01:08:57;;;;;;;2.25;1.48;;;24.40;37.40;;;;;;5073185;28;20043;-59
2021/04/22 01:11:29;;;;;;;1.85;1.40;;;24.40;37.40;;;;;;5077616;28;20066;-55
2021/04/22 01:13:55;;;;;;;2.05;1.48;;;24.40;37.40;;;;;;5080796;28;20380;-57
2021/04/22 01:16:20;;;;;;;2.03;1.40;;;24.40;37.40;;;;;;5083516;28;20038;-58
2021/04/22 01:18:46;;;;;;;2.47;1.60;;;24.40;37.40;;;;;;5080205;28;20141;-55
2021/04/22 01:21:30;;;;;;;2.25;1.45;;;24.40;37.40;;;;;;5081024;28;20084;-55
2021/04/22 01:23:55;;;;;;;4.25;1.80;;;24.40;37.40;;;;;;5080943;28;20103;-59
2021/04/22 01:26:24;;;;;;;1.70;1.27;;;24.40;37.40;;;;;;5083760;28;20154;-55
2021/04/22 01:28:50;;;;;;;2.28;1.40;;;24.40;37.40;;;;;;5083717;28;20032;-55
2021/04/22 01:31:16;;;;;;;1.92;1.25;;;24.40;37.50;;;;;;5083772;28;20047;-56
2021/04/22 01:33:42;;;;;;;2.30;1.40;;;24.30;37.40;;;;;;5082397;28;20028;-54
2021/04/22 01:36:08;;;;;;;1.80;1.30;;;24.40;37.50;;;;;;5080027;28;20028;-54
2021/04/22 01:38:36;;;;;;;2.05;1.40;;;24.30;37.40;;;;;;5077738;28;20047;-59
2021/04/22 01:41:02;;;;;;;2.30;1.30;;;24.30;37.50;;;;;;5073854;28;20100;-59
2021/04/22 01:43:28;;;;;;;2.00;1.40;;;24.30;37.50;;;;;;5061310;28;20047;-58
2021/04/22 01:45:55;;;;;;;3.22;1.40;;;24.30;37.40;;;;;;5080754;28;20032;-54
2021/04/22 01:48:22;;;;;;;3.13;1.42;;;24.30;37.50;;;;;;5082452;28;20651;-58
2021/04/22 01:50:48;;;;;;;1.77;1.33;;;24.30;37.50;;;;;;5080089;28;20218;-58
2021/04/22 01:53:14;;;;;;;2.03;1.30;;;24.30;37.50;;;;;;5082242;28;20549;-57
2021/04/22 01:55:41;;;;;;;2.60;1.42;;;24.30;37.50;;;;;;5075133;28;20080;-57
2021/04/22 01:58:10;;;;;;;2.15;1.50;;;24.30;37.50;;;;;;5086996;28;20028;-57
2021/04/22 02:00:45;;;;;;;1.70;1.20;;;24.30;37.50;;;;;;5081094;28;20138;-56
2021/04/22 02:03:11;;;;;;;2.00;1.40;;;24.30;37.50;;;;;;5068293;28;20036;-55
2021/04/22 02:05:38;;;;;;;2.17;1.40;;;24.30;38.00;;;;;;5083289;28;20028;-53
2021/04/22 02:08:05;;;;;;;1.90;1.48;;;24.30;37.50;;;;;;5084471;28;20135;-57
2021/04/22 02:10:31;;;;;;;2.50;1.30;;;24.30;37.50;;;;;;5070438;28;20068;-58
2021/04/22 02:12:58;;;;;;;2.20;1.38;;;24.30;37.50;;;;;;5067935;28;20020;-56
2021/04/22 02:15:27;;;;;;;1.58;1.10;;;24.20;37.40;;;;;;5084684;28;20059;-56
2021/04/22 02:17:53;;;;;;;2.53;1.30;;;24.20;37.50;;;;;;5083002;28;20089;-58
2021/04/22 02:20:19;;;;;;;2.53;1.27;;;24.20;37.50;;;;;;5094845;28;20035;-59
2021/04/22 02:22:46;;;;;;;2.03;1.40;;;24.20;37.50;;;;;;5106859;28;20031;-59
2021/04/22 02:25:15;;;;;;;1.95;1.38;;;24.20;37.50;;;;;;5077686;28;20028;-57
2021/04/22 02:27:42;;;;;;;2.35;1.35;;;24.20;37.50;;;;;;5085281;28;20081;-56
2021/04/22 02:30:14;;;;;;;1.85;1.27;;;24.20;37.50;;;;;;5086401;28;20111;-55
2021/04/22 02:32:40;;;;;;;1.90;1.40;;;24.20;37.50;;;;;;5086932;28;20049;-54
2021/04/22 02:35:08;;;;;;;2.85;1.50;;;24.20;37.50;;;;;;5086073;28;20420;-59
2021/04/22 02:37:34;;;;;;;2.25;1.23;;;24.20;37.50;;;;;;5084088;28;20059;-58
2021/04/22 02:40:00;;;;;;;1.75;1.23;;;24.10;37.50;;;;;;5091880;28;20071;-57
2021/04/22 02:42:25;;;;;;;2.67;1.20;;;24.10;37.50;;;;;;5087674;28;20378;-56
2021/04/22 02:44:51;;;;;;;2.08;1.30;;;24.20;37.50;;;;;;5085216;28;20506;-58
2021/04/22 02:47:16;;;;;;;1.90;1.30;;;24.20;37.60;;;;;;5084770;28;20596;-57
2021/04/22 02:49:42;;;;;;;1.80;1.35;;;24.20;37.60;;;;;;5077549;28;20036;-55
2021/04/22 02:52:08;;;;;;;2.30;1.40;;;24.20;37.60;;;;;;5070542;28;20040;-58
2021/04/22 02:54:35;;;;;;;1.90;1.42;;;24.20;37.80;;;;;;5086014;28;20067;-56
2021/04/22 02:57:00;;;;;;;1.70;1.20;;;24.10;37.50;;;;;;5086710;28;20032;-58
2021/04/22 02:59:26;;;;;;;1.95;1.23;;;24.20;37.50;;;;;;5086756;28;20089;-53
2021/04/22 03:01:51;;;;;;;1.48;1.20;;;24.10;37.50;;;;;;5078776;28;20062;-54
2021/04/22 03:04:17;;;;;;;1.60;1.25;;;24.10;37.50;;;;;;5085011;28;20107;-57
2021/04/22 03:06:42;;;;;;;1.63;1.20;;;24.10;37.50;;;;;;5085999;28;20565;-57
2021/04/22 03:09:08;;;;;;;1.52;1.08;;;24.10;37.50;;;;;;5083304;28;20701;-58
2021/04/22 03:11:34;;;;;;;2.50;1.20;;;24.10;37.50;;;;;;5083780;28;20032;-57
2021/04/22 03:13:59;;;;;;;1.65;1.13;;;24.10;37.60;;;;;;5085640;28;20036;-56
2021/04/22 03:16:25;;;;;;;1.90;1.25;;;24.10;37.50;;;;;;5085077;28;20032;-58
2021/04/22 03:18:50;;;;;;;1.50;1.20;;;24.10;37.60;;;;;;5084779;28;20093;-53
2021/04/22 03:21:16;;;;;;;1.90;1.20;;;24.10;37.60;;;;;;5085092;28;20024;-54
2021/04/22 03:23:42;;;;;;;1.70;1.20;;;24.10;37.60;;;;;;5083654;28;20028;-54
2021/04/22 03:26:08;;;;;;;1.58;1.17;;;24.00;37.50;;;;;;5076465;28;20132;-55
2021/04/22 03:28:33;;;;;;;1.88;1.20;;;24.00;37.50;;;;;;5085977;28;20059;-57
2021/04/22 03:30:59;;;;;;;1.90;1.35;;;24.00;37.50;;;;;;5083028;28;20113;-53
2021/04/22 03:33:24;;;;;;;1.58;1.08;;;24.00;37.50;;;;;;5083963;28;20028;-56
2021/04/22 03:35:51;;;;;;;2.08;1.20;;;24.00;37.50;;;;;;5084571;28;20047;-56
2021/04/22 03:38:17;;;;;;;1.50;1.20;;;24.00;37.50;;;;;;5083172;28;20089;-57
2021/04/22 03:40:43;;;;;;;1.33;1.05;;;24.00;37.60;;;;;;5085402;28;20028;-55
2021/04/22 03:43:08;;;;;;;1.60;1.30;;;24.00;37.50;;;;;;5084125;28;20032;-54
2021/04/22 03:45:34;;;;;;;1.40;1.20;;;24.00;37.60;;;;;;5083281;28;20036;-56
2021/04/22 03:47:59;;;;;;;1.80;1.20;;;24.00;37.60;;;;;;5084262;28;20032;-55
2021/04/22 03:50:25;;;;;;;1.70;1.10;;;24.00;37.60;;;;;;5084771;28;20390;-55
2021/04/22 03:52:52;;;;;;;1.35;1.10;;;23.90;37.50;;;;;;5075809;28;20109;-56
2021/04/22 03:55:19;;;;;;;1.73;1.20;;;23.90;37.50;;;;;;5084391;28;20039;-57
2021/04/22 03:57:45;;;;;;;1.98;1.17;;;23.90;37.50;;;;;;5083730;28;20371;-59
2021/04/22 04:00:13;;;;;;;1.50;1.10;;;24.00;37.60;;;;;;5080662;28;20040;-56
2021/04/22 04:02:39;;;;;;;1.88;1.10;;;23.90;37.50;;;;;;5080166;28;20134;-58
2021/04/22 04:05:06;;;;;;;1.85;1.20;;;23.90;37.50;;;;;;5082386;28;20113;-56
2021/04/22 04:07:32;;;;;;;1.55;1.30;;;23.90;37.60;;;;;;5080097;28;20036;-51
2021/04/22 04:09:58;;;;;;;1.60;1.10;;;23.90;37.60;;;;;;5069925;28;20028;-58
2021/04/22 04:12:24;;;;;;;1.60;1.10;;;23.90;38.10;;;;;;5074094;28;20032;-55
2021/04/22 04:14:49;;;;;;;1.40;1.00;;;23.90;37.60;;;;;;5080686;28;20284;-59
2021/04/22 04:17:15;;;;;;;1.23;1.05;;;23.90;37.60;;;;;;5074994;28;20233;-57
2021/04/22 04:19:41;;;;;;;1.25;1.02;;;23.90;37.60;;;;;;5080814;28;20110;-54
2021/04/22 04:22:07;;;;;;;2.58;1.30;;;23.90;37.60;;;;;;5089190;28;20031;-55
2021/04/22 04:24:32;;;;;;;1.63;1.17;;;23.90;37.60;;;;;;5082692;28;20028;-50
2021/04/22 04:26:58;;;;;;;1.42;1.10;;;23.90;37.60;;;;;;5083460;28;21905;-56
2021/04/22 04:29:23;;;;;;;1.40;1.08;;;23.90;37.60;;;;;;5082767;28;20155;-53
2021/04/22 04:31:49;;;;;;;1.70;1.20;;;23.90;37.60;;;;;;5083713;28;20056;-54
2021/04/22 04:34:15;;;;;;;2.33;1.20;;;23.90;37.60;;;;;;5080693;28;20121;-54
2021/04/22 04:36:45;;;;;;;1.88;1.20;;;23.90;37.60;;;;;;5077970;28;20036;-54
2021/04/22 04:39:11;;;;;;;1.40;1.10;;;23.90;37.70;;;;;;5082139;28;20028;-57
2021/04/22 04:41:36;;;;;;;1.50;1.10;;;23.90;37.70;;;;;;5083200;28;20051;-56
2021/04/22 04:44:03;;;;;;;1.45;1.13;;;23.90;37.70;;;;;;5080465;28;20490;-54
2021/04/22 04:46:30;;;;;;;2.00;1.25;;;23.90;37.70;;;;;;5082908;28;20028;-52
2021/04/22 04:48:56;;;;;;;1.25;1.08;;;23.80;37.60;;;;;;5084187;28;20474;-60
2021/04/22 04:51:21;;;;;;;1.98;1.30;;;23.80;37.60;;;;;;5066698;28;20036;-53
2021/04/22 04:53:48;;;;;;;2.25;1.40;;;23.80;37.60;;;;;;5068220;28;20495;-56
2021/04/22 04:56:17;;;;;;;1.60;1.10;;;23.80;37.60;;;;;;5083484;28;20040;-56
2021/04/22 04:58:43;;;;;;;;;;;23.80;37.60;;;;;;5084614;28;20044;-54
2021/04/22 05:01:08;;;;;;;1.52;1.20;;;23.80;37.60;;;;;;5082315;28;19931;-52
2021/04/22 05:03:34;;;;;;;1.98;1.48;;;23.80;37.60;;;;;;5080608;28;20036;-53
2021/04/22 05:06:00;;;;;;;1.55;1.08;;;23.80;37.60;;;;;;5083226;28;20178;-56
2021/04/22 05:08:25;;;;;;;2.30;1.52;;;23.80;37.60;;;;;;5082764;28;20040;-52
2021/04/22 05:10:51;;;;;;;1.70;1.10;;;23.80;37.70;;;;;;5083986;28;20461;-52
2021/04/22 05:13:16;;;;;;;1.65;1.20;;;23.80;37.60;;;;;;5083045;28;20088;-53
2021/04/22 05:15:42;;;;;;;1.80;1.20;;;23.80;37.60;;;;;;5077932;28;20039;-56
2021/04/22 05:18:08;;;;;;;2.45;1.17;;;23.80;37.60;;;;;;5077508;28;20028;-55
2021/04/22 05:20:33;;;;;;;1.85;1.20;;;23.80;37.60;;;;;;5082840;28;20153;-54
2021/04/22 05:22:59;;;;;;;1.80;1.20;;;23.80;37.70;;;;;;5084144;28;20478;-56
2021/04/22 05:25:25;;;;;;;1.52;1.00;;;23.80;37.60;;;;;;5082329;28;20036;-53
2021/04/22 05:27:50;;;;;;;1.58;1.10;;;23.80;37.70;;;;;;5083960;28;20036;-58
2021/04/22 05:30:16;;;;;;;1.92;1.10;;;23.70;37.60;;;;;;5083976;28;20060;-58
2021/04/22 05:32:42;;;;;;;1.90;1.20;;;23.70;37.70;;;;;;5086334;28;20489;-52
2021/04/22 05:35:08;;;;;;;2.20;1.33;;;23.70;37.70;;;;;;5074071;28;20032;-57
2021/04/22 05:37:34;;;;;;;1.83;1.20;;;23.70;37.70;;;;;;5088279;28;20493;-53
2021/04/22 05:39:59;;;;;;;2.90;1.20;;;23.70;37.80;;;;;;5086751;28;20032;-54
2021/04/22 05:42:25;;;;;;;1.65;1.20;;;23.70;37.80;;;;;;5084302;28;20099;-53
2021/04/22 05:44:51;;;;;;;2.00;1.20;;;23.80;37.90;;;;;;5087461;28;20031;-58
2021/04/22 05:47:16;;;;;;;1.38;1.10;;;23.70;37.80;;;;;;5084195;28;20120;-54
2021/04/22 05:49:42;;;;;;;2.22;1.35;;;23.70;37.80;;;;;;5087455;28;20039;-56
2021/04/22 05:52:07;;;;;;;2.20;1.30;;;23.70;37.80;;;;;;5086900;28;20036;-53
2021/04/22 05:54:33;;;;;;;1.90;1.10;;;23.70;37.80;;;;;;5079056;28;20100;-53
2021/04/22 05:56:59;;;;;;;2.47;1.27;;;23.70;37.80;;;;;;5083574;28;20233;-54
2021/04/22 05:59:24;;;;;;;1.75;1.10;;;23.70;37.80;;;;;;5080740;28;20074;-57
2021/04/22 06:01:50;;;;;;;1.42;1.10;;;23.70;37.80;;;;;;5077964;28;20144;-59
2021/04/22 06:04:16;;;;;;;1.73;1.30;;;23.80;37.90;;;;;;5071229;28;20024;-56
2021/04/22 06:06:41;;;;;;;2.20;1.38;;;23.80;37.80;;;;;;5068296;28;20362;-54
2021/04/22 06:09:07;;;;;;;2.03;1.30;;;23.80;37.80;;;;;;5086012;28;20028;-52
2021/04/22 06:11:33;;;;;;;1.70;1.25;;;23.80;37.70;;;;;;5088507;28;20055;-52
2021/04/22 06:13:58;;;;;;;2.13;1.30;;;23.90;37.70;;;;;;5085528;28;20032;-54
2021/04/22 06:16:25;;;;;;;1.88;1.20;;;23.90;37.70;;;;;;5085793;28;20032;-56
2021/04/22 06:18:51;;;;;;;1.98;1.25;;;23.90;37.60;;;;;;5087223;28;20123;-56
2021/04/22 06:21:17;;;;;;;3.05;1.40;;;24.00;37.70;;;;;;5087734;28;20069;-52
2021/04/22 06:23:43;;;;;;;1.65;1.20;;;24.00;37.70;;;;;;5086428;28;20086;-55
2021/04/22 06:26:09;;;;;;;3.05;1.25;;;24.00;37.60;;;;;;5086240;28;20028;-53
2021/04/22 06:28:34;;;;;;;2.08;1.23;;;24.00;37.60;;;;;;5087226;28;20098;-53
2021/04/22 06:31:00;;;;;;;2.33;1.50;;;24.00;37.50;;;;;;5086599;28;20047;-51
2021/04/22 06:33:26;;;;;;;1.95;1.40;;;24.10;37.60;;;;;;5086243;28;20035;-52
2021/04/22 06:35:51;;;;;;;2.25;1.40;;;24.10;37.60;;;;;;5086401;28;20175;-47
2021/04/22 06:38:17;;;;;;;1.60;1.20;;;24.10;37.60;;;;;;5085296;28;20493;-54
2021/04/22 06:40:43;;;;;;;2.97;1.30;;;24.10;37.50;;;;;;5085875;28;20825;-49
2021/04/22 06:43:12;;;;;;;1.40;1.10;;;24.20;37.60;;;;;;5085386;28;20053;-57
2021/04/22 06:45:42;;;;;;;1.67;1.20;;;24.20;37.50;;;;;;5086005;28;20044;-55
2021/04/22 06:48:10;;;;;;;2.22;1.20;;;24.20;37.60;;;;;;5086029;28;20028;-50
2021/04/22 06:50:36;;;;;;;2.50;1.52;;;24.20;37.50;;;;;;5083843;28;20545;-55
2021/04/22 06:53:03;;;;;;;2.28;1.38;;;24.20;37.40;;;;;;5084350;28;20086;-55
2021/04/22 06:55:29;;;;;;;1.48;1.15;;;24.30;37.40;;;;;;5084796;28;20036;-52
2021/04/22 06:57:55;;;;;;;3.00;1.40;;;24.30;37.50;;;;;;5085456;28;20035;-58
2021/04/22 07:00:23;;;;;;;2.03;1.27;;;24.30;37.50;;;;;;5083993;28;20536;-58
2021/04/22 07:02:49;;;;;;;1.90;1.20;;;24.30;37.40;;;;;;5079215;28;20078;-54
2021/04/22 07:05:17;;;;;;;1.85;1.20;;;24.40;37.50;;;;;;5079622;28;20025;-55
2021/04/22 07:07:43;;;;;;;2.42;1.60;;;24.30;37.40;;;;;;5091100;28;20439;-52
2021/04/22 07:10:10;;;;;;;1.50;1.30;;;24.40;37.40;;;;;;5087549;28;20036;-54
2021/04/22 07:12:36;;;;;;;2.17;1.20;;;24.40;37.40;;;;;;5086213;28;20050;-50
2021/04/22 07:15:02;;;;;;;1.88;1.30;;;24.40;37.50;;;;;;5089297;28;20047;-58
2021/04/22 07:17:28;;;;;;;1.75;1.35;;;24.40;37.50;;;;;;5088444;28;20031;-58
2021/04/22 07:19:57;;;;;;;2.17;1.30;;;24.40;37.50;;;;;;5083002;28;20036;-53
2021/04/22 07:22:24;;;;;;;1.25;1.08;;;24.40;37.60;;;;;;5079250;28;20362;-55
2021/04/22 07:24:50;;;;;;;1.77;1.20;;;24.40;37.40;;;;;;5082143;28;20439;-54
2021/04/22 07:27:15;;;;;;;1.65;1.20;;;24.50;37.40;;;;;;5084592;28;20119;-54
2021/04/22 07:29:45;;;;;;;2.55;1.20;;;24.50;37.40;;;;;;5089167;28;20159;-54
2021/04/22 07:32:15;;;;;;;1.73;1.30;;;24.50;37.40;;;;;;5082317;28;20674;-55
2021/04/22 07:34:42;;;;;;;1.60;1.20;;;24.60;37.90;;;;;;5085109;28;20120;-56
2021/04/22 07:37:08;;;;;;;2.08;1.20;;;24.60;37.30;;;;;;5085269;28;20028;-55
2021/04/22 07:39:34;;;;;;;1.70;1.30;;;24.60;37.40;;;;;;5084670;28;20428;-51
2021/04/22 07:42:00;;;;;;;1.80;1.25;;;24.60;37.30;;;;;;5085187;28;20047;-52
2021/04/22 07:44:25;;;;;;;2.40;1.23;;;24.60;37.30;;;;;;5084907;28;20119;-49
2021/04/22 07:46:51;;;;;;;2.20;1.25;;;24.60;37.30;;;;;;5084686;28;20048;-52
2021/04/22 07:49:17;;;;;;;1.70;1.20;;;24.60;37.30;;;;;;5080392;28;20032;-51
2021/04/22 07:51:42;;;;;;;2.00;1.20;;;24.60;37.30;;;;;;5085448;28;20042;-54
2021/04/22 07:54:08;;;;;;;2.13;1.20;;;24.60;37.30;;;;;;5079299;28;20042;-53
2021/04/22 07:56:34;;;;;;;2.25;1.33;;;24.60;37.30;;;;;;5084090;28;20081;-50
2021/04/22 07:58:59;;;;;;;1.40;1.10;;;24.60;37.90;;;;;;5082022;28;20620;-54
2021/04/22 08:01:27;;;;;;;1.58;1.10;;;24.60;37.40;;;;;;5083772;28;20380;-51
2021/04/22 08:03:52;;;;;;;2.20;1.42;;;24.60;37.40;;;;;;5083834;28;20042;-51
2021/04/22 08:06:18;;;;;;;2.03;1.25;;;24.70;37.40;;;;;;5084239;28;20027;-49
2021/04/22 08:08:44;;;;;;;2.53;1.45;;;24.70;37.40;;;;;;5083969;28;20030;-54
2021/04/22 08:11:10;;;;;;;1.73;1.30;;;24.70;37.40;;;;;;5082752;28;20032;-52
2021/04/22 08:13:37;;;;;;;1.92;1.20;;;24.70;37.40;;;;;;5077176;28;20381;-52
2021/04/22 08:16:03;;;;;;;2.47;1.40;;;24.70;37.40;;;;;;5084243;28;20943;-51
2021/04/22 08:18:29;;;;;;;1.90;1.27;;;24.70;37.40;;;;;;5084554;28;20065;-58
2021/04/22 08:20:57;;;;;;;1.50;1.10;;;24.70;37.50;;;;;;5084383;28;20195;-54
2021/04/22 08:23:28;;;;;;;3.35;1.20;;;24.70;37.50;;;;;;5086136;28;20026;-55
2021/04/22 08:25:57;;;;;;;1.52;1.20;;;24.70;37.50;;;;;;5080643;28;20176;-54
2021/04/22 08:28:23;;;;;;;2.08;1.30;;;24.70;37.40;;;;;;5081495;28;20036;-50
2021/04/22 08:31:00;;;;;;;1.85;1.10;;;24.80;37.50;;;;;;5082151;28;20059;-57
2021/04/22 08:33:27;;;;;;;3.53;1.20;;;24.80;37.60;;;;;;5080565;28;20417;-53
2021/04/22 08:35:53;;;;;;;1.63;1.08;;;24.80;37.50;;;;;;5074491;28;20079;-51
2021/04/22 08:38:20;;;;;;;2.05;1.17;;;24.80;37.60;;;;;;5078963;28;20048;-54
2021/04/22 08:40:47;;;;;;;1.70;1.08;;;24.80;37.60;;;;;;5083732;28;20622;-49
2021/04/22 08:43:13;;;;;;;2.45;1.30;;;24.80;37.60;;;;;;5094191;28;20047;-59
2021/04/22 08:45:40;;;;;;;2.30;1.30;;;24.80;37.70;;;;;;5082074;28;20127;-58
2021/04/22 08:48:06;;;;;;;2.08;1.15;;;24.80;37.60;;;;;;5074920;28;20039;-54
2021/04/22 08:50:33;;;;;;;3.10;1.00;;;24.80;37.60;;;;;;5078583;28;20032;-52
2021/04/22 08:53:06;;;;;;;2.22;1.25;;;24.80;37.60;;;;;;5076509;28;20512;-53
2021/04/22 08:55:35;;;;;;;2.05;1.30;;;24.80;37.60;;;;;;5081111;28;20032;-53
2021/04/22 08:58:03;;;;;;;2.20;1.10;;;24.80;37.80;;;;;;5079304;28;20024;-53
2021/04/22 09:00:32;;;;;;;1.98;1.17;;;24.80;38.30;;;;;;5077357;28;20541;-56
2021/04/22 09:02:58;;;;;;;3.00;1.30;;;24.80;37.80;;;;;;5079478;28;20051;-58
2021/04/22 09:05:24;;;;;;;1.60;1.08;;;24.80;37.80;;;;;;5078670;28;20747;-57
2021/04/22 09:07:50;;;;;;;1.95;1.17;;;24.80;37.70;;;;;;5083214;28;20504;-52
2021/04/22 09:10:24;;;;;;;1.10;0.95;;;24.80;37.70;;;;;;5083589;28;20032;-51
2021/04/22 09:13:05;;;;;;;2.03;1.17;;;24.80;37.80;;;;;;5083459;28;20068;-56
2021/04/22 09:15:32;;;;;;;1.55;1.10;;;24.80;37.70;;;;;;5075081;28;20110;-53
2021/04/22 09:18:02;;;;;;;1.98;1.20;;;24.80;37.70;;;;;;5082474;28;20419;-49
2021/04/22 09:20:40;;;;;;;3.78;1.10;;;24.80;37.70;;;;;;5075130;28;20126;-52
2021/04/22 09:23:22;;;;;;;1.80;1.25;;;24.80;37.70;;;;;;5082682;28;20028;-53
2021/04/22 09:26:06;;;;;;;2.85;1.05;;;24.80;37.70;;;;;;5073801;28;20099;-55
2021/04/22 09:28:44;;;;;;;1.90;1.15;;;24.90;38.20;;;;;;5082567;28;20047;-48
2021/04/22 09:31:11;;;;;;;1.85;1.10;;;24.80;37.60;;;;;;5073702;28;20067;-60
2021/04/22 09:33:39;;;;;;;2.55;1.17;;;24.80;37.60;;;;;;5079005;28;20028;-53
2021/04/22 09:36:05;;;;;;;1.95;1.17;;;24.80;37.80;;;;;;5078935;28;20359;-56
2021/04/22 09:38:30;;;;;;;2.08;1.20;;;24.80;37.80;;;;;;5079117;28;20016;-56
2021/04/22 09:41:13;;;;;;;1.83;1.20;;;24.80;37.70;;;;;;5076641;28;20032;-54
2021/04/22 09:43:40;;;;;;;2.17;1.30;;;24.80;37.70;;;;;;5073516;28;20028;-53
2021/04/22 09:46:23;;;;;;;2.20;1.23;;;24.80;37.60;;;;;;5075787;28;20028;-52
2021/04/22 09:48:49;;;;;;;2.00;1.35;;;24.80;37.80;;;;;;5082043;28;20746;-52
2021/04/22 09:51:31;;;;;;;1.70;1.10;;;24.90;37.90;;;;;;5074090;28;20028;-54
2021/04/22 09:54:23;;;;;;;1.92;1.02;;;24.90;37.90;;;;;;5079659;28;20084;-57
2021/04/22 09:56:54;;;;;;;1.83;1.10;;;25.00;37.90;;;;;;5079691;28;20584;-57
2021/04/22 09:59:22;;;;;;;1.77;1.17;;;24.90;37.90;;;;;;5081711;28;20051;-56
2021/04/22 10:02:01;;;;;;;2.33;1.10;;;25.00;38.10;;;;;;5074487;28;20175;-57
2021/04/22 10:04:31;;;;;;;;;;;25.00;38.20;;;;;;5080142;28;20161;-56
2021/04/22 10:06:57;;;;;;;1.92;1.20;;;25.00;38.10;;;;;;5075448;28;20307;-54
2021/04/22 10:09:36;;;;;;;2.50;1.30;;;25.00;38.10;;;;;;5078385;28;20040;-57
2021/04/22 10:12:03;;;;;;;1.52;1.02;;;25.00;38.20;;;;;;5078343;28;20028;-59
2021/04/22 10:14:31;;;;;;;2.13;1.10;;;25.10;38.30;;;;;;5071660;28;20032;-57
2021/04/22 10:16:56;;;;;;;2.17;1.27;;;25.00;38.20;;;;;;5079536;28;20032;-53
2021/04/22 10:19:22;;;;;;;1.63;1.20;;;25.00;38.30;;;;;;5076906;28;20473;-50
2021/04/22 10:21:47;;;;;;;1.50;1.00;;;25.10;38.20;;;;;;5083655;28;20127;-53
2021/04/22 10:24:15;;;;;;;1.85;1.20;;;25.00;38.10;;;;;;5080671;28;20110;-56
2021/04/22 10:26:41;;;;;;;2.33;1.00;;;25.10;38.20;;;;;;5083006;28;20081;-57
2021/04/22 10:29:08;;;;;;;1.83;1.20;;;25.10;38.20;;;;;;5083141;28;20056;-54
2021/04/22 10:31:35;;;;;;;2.83;1.30;;;25.10;38.20;;;;;;5082301;28;20576;-54
2021/04/22 10:34:01;;;;;;;1.80;1.10;;;25.10;38.30;;;;;;5079934;28;20118;-55
2021/04/22 10:36:27;;;;;;;1.92;1.13;;;25.10;38.30;;;;;;5081621;28;20046;-58
2021/04/22 10:38:55;;;;;;;1.40;1.00;;;25.10;38.30;;;;;;5083507;28;20036;-60
2021/04/22 10:41:21;;;;;;;1.70;1.13;;;25.10;38.20;;;;;;5075539;28;20067;-60
2021/04/22 10:43:48;;;;;;;3.00;1.33;;;25.10;38.20;;;;;;5078352;28;20056;-60
2021/04/22 10:46:16;;;;;;;1.88;1.40;;;25.10;38.20;;;;;;5078935;28;20085;-57
2021/04/22 10:48:41;;;;;;;2.10;1.10;;;25.10;38.20;;;;;;5093036;28;20077;-57
2021/04/22 10:51:08;;;;;;;1.60;1.20;;;25.10;38.20;;;;;;5096411;28;20024;-58
2021/04/22 10:53:39;;;;;;;1.73;1.05;;;25.10;38.20;;;;;;5090573;28;20400;-60
2021/04/22 10:56:05;;;;;;;1.90;1.15;;;25.10;38.10;;;;;;5088333;28;20028;-58
2021/04/22 10:58:39;;;;;;;1.30;1.00;;;25.10;38.00;;;;;;5085042;28;20074;-56
2021/04/22 11:01:09;;;;;;;2.45;1.30;;;25.10;38.00;;;;;;5087415;28;20500;-58
2021/04/22 11:03:46;;;;;;;1.63;1.08;;;25.10;38.00;;;;;;5072426;28;20206;-58
2021/04/22 11:06:18;;;;;;;1.88;1.08;;;25.10;38.00;;;;;;5091674;28;20455;-58
2021/04/22 11:08:46;;;;;;;2.67;1.23;;;25.10;37.90;;;;;;5084184;28;20059;-59
2021/04/22 11:11:34;;;;;;;1.88;1.00;;;25.10;37.90;;;;;;5079005;28;20024;-56
2021/04/22 11:14:12;;;;;;;2.47;1.38;;;25.20;38.00;;;;;;5073114;28;20031;-60
2021/04/22 11:16:40;;;;;;;1.77;1.20;;;25.20;38.10;;;;;;5086930;28;20024;-56
2021/04/22 11:19:33;;;;;;;2.50;1.20;;;25.20;38.00;;;;;;5087799;28;20143;-60
2021/04/22 11:22:20;;;;;;;2.30;1.35;;;25.20;38.00;;;;;;5091161;28;20024;-59
2021/04/22 11:24:51;;;;;;;1.63;1.00;;;25.20;38.00;;;;;;5091320;28;20233;-59
2021/04/22 11:27:17;;;;;;;2.10;1.00;;;25.20;38.00;;;;;;5083318;28;20066;-59
2021/04/22 11:29:57;;;;;;;2.15;1.20;;;25.20;38.00;;;;;;5084733;28;20114;-58
2021/04/22 11:32:30;;;;;;;2.08;1.10;;;25.20;38.10;;;;;;5086491;28;20066;-55
2021/04/22 11:35:13;;;;;;;2.55;1.20;;;25.20;38.10;;;;;;5088657;28;20042;-60
2021/04/22 11:37:58;;;;;;;1.98;1.10;;;25.20;38.10;;;;;;5088325;28;20051;-59
2021/04/22 11:40:48;;;;;;;2.10;1.20;;;25.20;38.10;;;;;;5085480;28;20066;-56
2021/04/22 11:43:21;;;;;;;2.22;1.13;;;25.20;38.20;;;;;;5073646;28;20116;-58
2021/04/22 11:45:51;;;;;;;2.83;1.15;;;25.30;38.20;;;;;;5081168;28;20075;-58
2021/04/22 11:48:18;;;;;;;2.17;1.20;;;25.20;38.20;;;;;;5090020;28;20463;-58
2021/04/22 11:50:51;;;;;;;3.42;1.20;;;25.30;38.30;;;;;;5094784;28;20453;-57
2021/04/22 11:53:21;;;;;;;2.80;1.00;;;25.30;38.20;;;;;;5094511;28;20085;-57
2021/04/22 11:55:50;;;;;;;2.53;1.10;;;25.30;38.20;;;;;;5092818;28;20036;-56
2021/04/22 11:58:18;;;;;;;1.98;1.02;;;25.30;38.20;;;;;;5091638;28;20551;-52
2021/04/22 12:00:48;;;;;;;2.25;0.90;;;25.30;38.20;;;;;;5089417;28;20100;-60
2021/04/22 12:03:21;;;;;;;2.17;1.10;;;25.30;38.30;;;;;;5075134;28;20044;-58
2021/04/22 12:05:49;;;;;;;1.58;1.05;;;25.30;38.20;;;;;;5091020;28;20033;-58
2021/04/22 12:08:16;;;;;;;1.25;1.00;;;25.30;38.30;;;;;;5095147;28;20431;-58
2021/04/22 12:10:48;;;;;;;2.42;1.10;;;25.30;38.20;;;;;;5076461;28;20036;-56
2021/04/22 12:13:18;;;;;;;1.75;1.10;;;25.30;38.20;;;;;;5065208;28;20024;-58
2021/04/22 12:15:49;;;;;;;2.80;1.00;;;25.30;38.20;;;;;;5081007;28;20110;-53
2021/04/22 12:18:28;;;;;;;2.17;1.08;;;25.30;38.30;;;;;;5083605;28;20028;-57
2021/04/22 12:21:04;;;;;;;;;;;25.30;38.20;;;;;;5081544;28;21717;-52
2021/04/22 12:23:31;;;;;;;1.92;1.10;;;25.30;38.20;;;;;;5077179;28;20064;-54
2021/04/22 12:25:57;;;;;;;2.90;1.10;;;25.30;38.20;;;;;;5079770;28;20031;-58
2021/04/22 12:28:23;;;;;;;1.83;1.00;;;25.40;38.30;;;;;;5075966;28;20630;-55
2021/04/22 12:30:50;;;;;;;3.15;1.10;;;25.40;38.30;;;;;;5079716;28;20510;-53
2021/04/22 12:33:21;;;;;;;1.65;1.10;;;25.40;38.30;;;;;;5080144;28;20328;-59
2021/04/22 12:35:58;;;;;;;2.53;1.17;;;25.40;38.30;;;;;;5077870;28;21831;-53
2021/04/22 12:38:30;;;;;;;1.98;1.10;;;25.40;38.20;;;;;;5080351;28;20506;-58
2021/04/22 12:40:58;;;;;;;1.67;1.10;;;25.40;38.20;;;;;;5075152;28;20093;-58
2021/04/22 12:43:29;;;;;;;2.07;1.10;;;25.40;38.20;;;;;;5077402;28;20053;-57
2021/04/22 12:45:56;;;;;;;2.10;1.10;;;25.40;38.20;;;;;;5075807;28;21067;-59
2021/04/22 12:48:22;;;;;;;2.95;1.10;;;25.40;38.20;;;;;;5074080;28;20439;-58
2021/04/22 12:50:49;;;;;;;2.28;1.10;;;25.40;38.10;;;;;;5078810;28;20111;-57